createdAt,value
2023-05-27T00:00:54.623Z,88937.00
2023-05-27T00:01:54.652Z,88939.00
2023-05-27T00:02:54.778Z,88939.00
2023-05-27T00:03:54.933Z,88937.00
2023-05-27T00:04:54.932Z,88937.00
2023-05-27T00:05:54.862Z,88937.00
2023-05-27T00:06:54.887Z,88935.00
2023-05-27T00:07:54.965Z,88935.00
2023-05-27T00:08:55.002Z,88935.00
2023-05-27T00:09:55.036Z,88937.00
2023-05-27T00:10:55.097Z,88937.00
2023-05-27T00:11:55.153Z,88935.00
2023-05-27T00:12:55.196Z,88937.00
2023-05-27T00:13:55.246Z,88935.00
2023-05-27T00:14:55.330Z,88935.00
2023-05-27T00:15:55.384Z,88935.00
2023-05-27T00:16:55.447Z,88937.00
2023-05-27T00:17:55.562Z,88939.00
2023-05-27T00:18:55.529Z,88935.00
2023-05-27T00:19:55.643Z,88935.00
2023-05-27T00:20:55.598Z,88935.00
2023-05-27T00:21:55.636Z,88937.00
2023-05-27T00:22:55.696Z,88937.00
2023-05-27T00:23:55.764Z,88933.00
2023-05-27T00:24:55.808Z,88935.00
2023-05-27T00:25:55.845Z,88937.00
2023-05-27T00:26:55.896Z,88933.00
2023-05-27T00:27:55.953Z,88931.00
2023-05-27T00:28:55.984Z,88931.00
2023-05-27T00:29:56.057Z,88933.00
2023-05-27T00:30:56.092Z,88931.00
2023-05-27T00:31:56.149Z,88931.00
2023-05-27T00:32:56.256Z,88933.00
2023-05-27T00:33:56.229Z,88933.00
2023-05-27T00:34:56.300Z,88933.00
2023-05-27T00:35:57.213Z,88931.00
2023-05-27T00:36:56.368Z,88935.00
2023-05-27T00:37:56.409Z,88935.00
2023-05-27T00:38:56.464Z,88935.00
2023-05-27T00:39:56.516Z,88935.00
2023-05-27T00:40:56.606Z,88933.00
2023-05-27T00:41:56.614Z,88933.00
2023-05-27T00:42:56.670Z,88935.00
2023-05-27T00:43:56.732Z,88935.00
2023-05-27T00:44:56.800Z,88931.00
2023-05-27T00:45:56.852Z,88933.00
2023-05-27T00:46:56.888Z,88931.00
2023-05-27T00:47:56.990Z,88929.00
2023-05-27T00:48:57.003Z,88929.00
2023-05-27T00:49:57.037Z,88929.00
2023-05-27T00:50:57.103Z,88927.00
2023-05-27T00:51:57.148Z,88925.00
2023-05-27T00:52:57.201Z,88923.00
2023-05-27T00:53:57.251Z,88923.00
2023-05-27T00:54:57.283Z,88925.00
2023-05-27T00:55:57.347Z,88925.00
2023-05-27T00:56:57.393Z,88923.00
2023-05-27T00:57:57.473Z,88925.00
2023-05-27T00:58:57.517Z,88923.00
2023-05-27T00:59:57.563Z,88923.00
2023-05-27T01:00:57.635Z,88925.00
2023-05-27T01:01:57.670Z,88921.00
2023-05-27T01:02:57.783Z,88925.00
2023-05-27T01:03:57.769Z,88923.00
2023-05-27T01:04:57.810Z,88921.00
2023-05-27T01:05:57.903Z,88921.00
2023-05-27T01:06:57.947Z,88921.00
2023-05-27T01:07:57.976Z,88921.00
2023-05-27T01:08:58.064Z,88917.00
2023-05-27T01:09:58.101Z,88915.00
2023-05-27T01:10:58.190Z,88915.00
2023-05-27T01:11:58.260Z,88917.00
2023-05-27T01:12:58.282Z,88917.00
2023-05-27T01:13:58.307Z,88915.00
2023-05-27T01:14:58.384Z,88915.00
2023-05-27T01:15:58.429Z,88917.00
2023-05-27T01:16:58.542Z,88915.00
2023-05-27T01:17:58.540Z,88917.00
2023-05-27T01:18:58.601Z,88917.00
2023-05-27T01:19:58.665Z,88915.00
2023-05-27T01:20:58.741Z,88917.00
2023-05-27T01:21:58.749Z,88917.00
2023-05-27T01:22:58.800Z,88915.00
2023-05-27T01:23:58.853Z,88915.00
2023-05-27T01:24:58.954Z,88915.00
2023-05-27T01:25:58.956Z,88913.00
2023-05-27T01:26:59.027Z,88913.00
2023-05-27T01:27:59.063Z,88913.00
2023-05-27T01:28:59.126Z,88915.00
2023-05-27T01:29:59.179Z,88909.00
2023-05-27T01:30:59.251Z,88909.00
2023-05-27T01:31:59.370Z,88911.00
2023-05-27T01:32:59.380Z,88911.00
2023-05-27T01:33:59.416Z,88911.00
2023-05-27T01:34:59.460Z,88911.00
2023-05-27T01:35:59.534Z,88911.00
2023-05-27T01:36:59.567Z,88911.00
2023-05-27T01:37:59.623Z,88911.00
2023-05-27T01:38:59.695Z,88913.00
2023-05-27T01:39:59.741Z,88913.00
2023-05-27T01:40:59.800Z,88913.00
2023-05-27T01:41:59.866Z,88913.00
2023-05-27T01:42:59.922Z,88911.00
2023-05-27T01:43:59.983Z,88911.00
2023-05-27T01:45:00.037Z,88911.00
2023-05-27T01:46:00.086Z,88909.00
2023-05-27T01:47:00.232Z,88907.00
2023-05-27T01:48:00.379Z,88905.00
2023-05-27T01:49:00.745Z,88907.00
2023-05-27T01:50:00.316Z,88903.00
2023-05-27T01:51:00.336Z,88903.00
2023-05-27T01:52:00.400Z,88905.00
2023-05-27T01:53:00.654Z,88905.00
2023-05-27T01:54:00.548Z,88907.00
2023-05-27T01:55:00.618Z,88907.00
2023-05-27T01:56:00.658Z,88905.00
2023-05-27T01:57:00.693Z,88905.00
2023-05-27T01:58:00.771Z,88907.00
2023-05-27T01:59:00.821Z,88905.00
2023-05-27T02:00:00.896Z,88903.00
2023-05-27T02:01:00.978Z,88907.00
2023-05-27T02:02:01.012Z,88905.00
2023-05-27T02:03:01.199Z,88907.00
2023-05-27T02:04:01.181Z,88905.00
2023-05-27T02:05:01.141Z,88905.00
2023-05-27T02:06:01.202Z,88905.00
2023-05-27T02:07:01.237Z,88905.00
2023-05-27T02:08:01.285Z,88903.00
2023-05-27T02:09:01.355Z,88905.00
2023-05-27T02:10:01.386Z,88905.00
2023-05-27T02:11:01.428Z,88903.00
2023-05-27T02:12:01.460Z,88905.00
2023-05-27T02:13:01.531Z,88905.00
2023-05-27T02:14:01.588Z,88905.00
2023-05-27T02:15:01.701Z,88905.00
2023-05-27T02:16:01.706Z,88903.00
2023-05-27T02:17:01.795Z,88905.00
2023-05-27T02:18:01.830Z,88905.00
2023-05-27T02:19:01.868Z,88903.00
2023-05-27T02:20:02.105Z,88901.00
2023-05-27T02:21:01.968Z,88901.00
2023-05-27T02:22:02.034Z,88899.00
2023-05-27T02:23:02.083Z,88899.00
2023-05-27T02:24:02.140Z,88897.00
2023-05-27T02:25:02.197Z,88895.00
2023-05-27T02:26:02.255Z,88897.00
2023-05-27T02:27:02.325Z,88895.00
2023-05-27T02:28:02.609Z,88897.00
2023-05-27T02:29:02.430Z,88899.00
2023-05-27T02:30:02.484Z,88897.00
2023-05-27T02:31:02.634Z,88899.00
2023-05-27T02:32:02.603Z,88897.00
2023-05-27T02:33:02.686Z,88901.00
2023-05-27T02:34:02.711Z,88901.00
2023-05-27T02:35:02.758Z,88903.00
2023-05-27T02:36:02.822Z,88903.00
2023-05-27T02:37:02.883Z,88901.00
2023-05-27T02:38:02.916Z,88903.00
2023-05-27T02:39:02.989Z,88905.00
2023-05-27T02:40:03.059Z,88905.00
2023-05-27T02:41:03.083Z,88905.00
2023-05-27T02:42:03.146Z,88905.00
2023-05-27T02:43:03.211Z,88905.00
2023-05-27T02:44:03.254Z,88903.00
2023-05-27T02:45:03.404Z,88905.00
2023-05-27T02:46:03.430Z,88905.00
2023-05-27T02:47:03.469Z,88905.00
2023-05-27T02:48:03.597Z,88905.00
2023-05-27T02:49:03.527Z,88905.00
2023-05-27T02:50:03.549Z,88903.00
2023-05-27T02:51:03.756Z,88903.00
2023-05-27T02:52:03.733Z,88905.00
2023-05-27T02:53:03.738Z,88905.00
2023-05-27T02:54:03.822Z,88905.00
2023-05-27T02:55:03.814Z,88907.00
2023-05-27T02:56:03.871Z,88907.00
2023-05-27T02:57:03.932Z,88907.00
2023-05-27T02:58:03.989Z,88907.00
2023-05-27T02:59:04.046Z,88905.00
2023-05-27T03:00:04.075Z,88905.00
2023-05-27T03:01:04.141Z,88907.00
2023-05-27T03:02:04.327Z,88907.00
2023-05-27T03:03:04.285Z,88907.00
2023-05-27T03:04:04.362Z,88907.00
2023-05-27T03:05:04.376Z,88905.00
2023-05-27T03:06:04.401Z,88907.00
2023-05-27T03:07:04.455Z,88907.00
2023-05-27T03:08:04.500Z,88907.00
2023-05-27T03:09:04.552Z,88905.00
2023-05-27T03:10:04.611Z,88905.00
2023-05-27T03:11:04.640Z,88903.00
2023-05-27T03:12:04.678Z,88903.00
2023-05-27T03:13:04.713Z,88905.00
2023-05-27T03:14:04.745Z,88905.00
2023-05-27T03:15:04.785Z,88905.00
2023-05-27T03:16:04.824Z,88903.00
2023-05-27T03:17:04.774Z,88903.00
2023-05-27T03:18:04.807Z,88901.00
2023-05-27T03:19:04.762Z,88903.00
2023-05-27T03:20:04.771Z,88903.00
2023-05-27T03:21:04.735Z,88901.00
2023-05-27T03:22:04.718Z,88899.00
2023-05-27T03:23:04.708Z,88901.00
2023-05-27T03:24:04.681Z,88901.00
2023-05-27T03:25:04.706Z,88899.00
2023-05-27T03:26:04.847Z,88899.00
2023-05-27T03:27:04.641Z,88899.00
2023-05-27T03:28:04.620Z,88899.00
2023-05-27T03:29:04.603Z,88899.00
2023-05-27T03:30:04.592Z,88899.00
2023-05-27T03:31:04.575Z,88901.00
2023-05-27T03:32:04.741Z,88897.00
2023-05-27T03:33:04.668Z,88895.00
2023-05-27T03:34:04.731Z,88897.00
2023-05-27T03:35:04.742Z,88901.00
2023-05-27T03:36:04.770Z,88901.00
2023-05-27T03:37:04.790Z,88897.00
2023-05-27T03:38:04.891Z,88901.00
2023-05-27T03:39:04.811Z,88899.00
2023-05-27T03:40:04.851Z,88897.00
2023-05-27T03:41:05.686Z,88901.00
2023-05-27T03:42:04.799Z,88899.00
2023-05-27T03:43:04.830Z,88901.00
2023-05-27T03:44:04.873Z,88897.00
2023-05-27T03:45:04.894Z,88895.00
2023-05-27T03:46:04.871Z,88895.00
2023-05-27T03:47:04.960Z,88897.00
2023-05-27T03:48:04.927Z,88899.00
2023-05-27T03:49:04.894Z,88897.00
2023-05-27T03:50:04.950Z,88897.00
2023-05-27T03:51:04.896Z,88899.00
2023-05-27T03:52:04.922Z,88901.00
2023-05-27T03:53:04.953Z,88901.00
2023-05-27T03:54:04.960Z,88903.00
2023-05-27T03:55:05.060Z,88901.00
2023-05-27T03:56:05.099Z,88901.00
2023-05-27T03:57:05.111Z,88903.00
2023-05-27T03:58:05.081Z,88897.00
2023-05-27T03:59:05.422Z,88897.00
2023-05-27T04:00:05.137Z,88897.00
2023-05-27T04:01:05.799Z,88897.00
2023-05-27T04:02:05.223Z,88897.00
2023-05-27T04:03:05.498Z,88895.00
2023-05-27T04:04:05.485Z,88895.00
2023-05-27T04:05:05.355Z,88897.00
2023-05-27T04:06:05.392Z,88899.00
2023-05-27T04:07:05.456Z,88893.00
2023-05-27T04:08:06.326Z,88893.00
2023-05-27T04:09:05.421Z,88893.00
2023-05-27T04:10:06.297Z,88893.00
2023-05-27T04:11:06.307Z,88897.00
2023-05-27T04:12:06.316Z,88893.00
2023-05-27T04:13:06.303Z,88897.00
2023-05-27T04:14:05.502Z,88899.00
2023-05-27T04:15:05.427Z,88897.00
2023-05-27T04:16:05.564Z,88899.00
2023-05-27T04:17:06.324Z,88895.00
2023-05-27T04:18:05.508Z,88899.00
2023-05-27T04:19:05.513Z,88899.00
2023-05-27T04:20:05.573Z,88895.00
2023-05-27T04:21:05.599Z,88899.00
2023-05-27T04:22:05.588Z,88899.00
2023-05-27T04:23:05.659Z,88893.00
2023-05-27T04:24:05.634Z,88897.00
2023-05-27T04:25:05.649Z,88891.00
2023-05-27T04:26:05.670Z,88893.00
2023-05-27T04:27:05.707Z,88895.00
2023-05-27T04:28:05.694Z,88897.00
2023-05-27T04:29:05.718Z,88891.00
2023-05-27T04:30:06.253Z,88891.00
2023-05-27T04:31:05.717Z,88891.00
2023-05-27T04:32:05.763Z,88895.00
2023-05-27T04:33:05.754Z,88897.00
2023-05-27T04:34:05.783Z,88893.00
2023-05-27T04:35:05.791Z,88893.00
2023-05-27T04:36:05.785Z,88890.00
2023-05-27T04:37:05.828Z,88893.00
2023-05-27T04:38:05.871Z,88890.00
2023-05-27T04:39:05.929Z,88890.00
2023-05-27T04:40:05.956Z,88888.00
2023-05-27T04:41:06.000Z,88888.00
2023-05-27T04:42:06.055Z,88888.00
2023-05-27T04:43:06.107Z,88888.00
2023-05-27T04:44:06.189Z,88886.00
2023-05-27T04:45:06.255Z,88884.00
2023-05-27T04:46:06.353Z,88888.00
2023-05-27T04:47:06.465Z,88886.00
2023-05-27T04:48:06.505Z,88882.00
2023-05-27T04:49:06.525Z,88886.00
2023-05-27T04:50:06.557Z,88886.00
2023-05-27T04:51:06.623Z,88886.00
2023-05-27T04:52:06.776Z,88886.00
2023-05-27T04:53:07.669Z,88882.00
2023-05-27T04:54:06.952Z,88882.00
2023-05-27T04:55:06.914Z,88884.00
2023-05-27T04:56:06.983Z,88880.00
2023-05-27T04:57:07.069Z,88880.00
2023-05-27T04:58:07.122Z,88880.00
2023-05-27T04:59:07.201Z,88882.00
2023-05-27T05:00:07.278Z,88878.00
2023-05-27T05:01:07.352Z,88880.00
2023-05-27T05:02:07.384Z,88876.00
2023-05-27T05:03:07.613Z,88878.00
2023-05-27T05:04:07.561Z,88876.00
2023-05-27T05:05:07.575Z,88880.00
2023-05-27T05:06:07.653Z,88878.00
2023-05-27T05:07:07.710Z,88878.00
2023-05-27T05:08:07.782Z,88878.00
2023-05-27T05:09:07.845Z,88878.00
2023-05-27T05:10:07.911Z,88876.00
2023-05-27T05:11:07.960Z,88874.00
2023-05-27T05:12:08.011Z,88878.00
2023-05-27T05:13:08.083Z,88882.00
2023-05-27T05:14:08.149Z,88882.00
2023-05-27T05:15:08.201Z,88882.00
2023-05-27T05:16:08.292Z,88880.00
2023-05-27T05:17:08.432Z,88878.00
2023-05-27T05:18:08.483Z,88880.00
2023-05-27T05:19:08.448Z,88876.00
2023-05-27T05:20:08.502Z,88876.00
2023-05-27T05:21:08.554Z,88876.00
2023-05-27T05:22:08.649Z,88872.00
2023-05-27T05:23:08.673Z,88878.00
2023-05-27T05:24:08.744Z,88878.00
2023-05-27T05:25:08.788Z,88880.00
2023-05-27T05:26:08.845Z,88878.00
2023-05-27T05:27:08.917Z,88878.00
2023-05-27T05:28:08.928Z,88878.00
2023-05-27T05:29:08.935Z,88878.00
2023-05-27T05:30:08.931Z,88878.00
2023-05-27T05:31:08.925Z,88878.00
2023-05-27T05:32:09.052Z,88878.00
2023-05-27T05:33:08.972Z,88880.00
2023-05-27T05:34:08.913Z,88880.00
2023-05-27T05:35:08.920Z,88878.00
2023-05-27T05:36:08.912Z,88874.00
2023-05-27T05:37:08.882Z,88874.00
2023-05-27T05:38:08.885Z,88872.00
2023-05-27T05:39:08.890Z,88874.00
2023-05-27T05:40:08.852Z,88872.00
2023-05-27T05:41:08.851Z,88870.00
2023-05-27T05:42:08.879Z,88868.00
2023-05-27T05:43:08.845Z,88868.00
2023-05-27T05:44:08.854Z,88868.00
2023-05-27T05:45:08.830Z,88866.00
2023-05-27T05:46:08.865Z,88866.00
2023-05-27T05:47:08.828Z,88862.00
2023-05-27T05:48:08.834Z,88864.00
2023-05-27T05:49:08.803Z,88862.00
2023-05-27T05:50:08.808Z,88860.00
2023-05-27T05:51:08.807Z,88860.00
2023-05-27T05:52:08.799Z,88860.00
2023-05-27T05:53:08.780Z,88856.00
2023-05-27T05:54:08.817Z,88858.00
2023-05-27T05:55:08.816Z,88860.00
2023-05-27T05:56:08.869Z,88858.00
2023-05-27T05:57:08.913Z,88858.00
2023-05-27T05:58:08.938Z,88854.00
2023-05-27T05:59:08.983Z,88856.00
2023-05-27T06:00:09.057Z,88854.00
2023-05-27T06:01:09.118Z,88852.00
2023-05-27T06:02:09.189Z,88854.00
2023-05-27T06:03:09.350Z,88856.00
2023-05-27T06:04:09.332Z,88854.00
2023-05-27T06:05:09.354Z,88854.00
2023-05-27T06:06:09.385Z,88852.00
2023-05-27T06:07:09.449Z,88852.00
2023-05-27T06:08:09.508Z,88852.00
2023-05-27T06:09:09.565Z,88852.00
2023-05-27T06:10:09.632Z,88854.00
2023-05-27T06:11:09.695Z,88856.00
2023-05-27T06:12:09.748Z,88852.00
2023-05-27T06:13:09.789Z,88852.00
2023-05-27T06:14:09.868Z,88852.00
2023-05-27T06:15:09.918Z,88854.00
2023-05-27T06:16:10.071Z,88852.00
2023-05-27T06:17:10.069Z,88852.00
2023-05-27T06:18:10.135Z,88852.00
2023-05-27T06:19:10.112Z,88850.00
2023-05-27T06:20:10.188Z,88852.00
2023-05-27T06:21:10.205Z,88852.00
2023-05-27T06:22:10.276Z,88854.00
2023-05-27T06:23:10.319Z,88852.00
2023-05-27T06:24:10.343Z,88852.00
2023-05-27T06:25:10.378Z,88854.00
2023-05-27T06:26:10.434Z,88850.00
2023-05-27T06:27:10.498Z,88852.00
2023-05-27T06:28:10.571Z,88852.00
2023-05-27T06:29:10.625Z,88852.00
2023-05-27T06:30:10.680Z,88852.00
2023-05-27T06:31:12.424Z,88852.00
2023-05-27T06:32:10.795Z,88850.00
2023-05-27T06:33:10.884Z,88850.00
2023-05-27T06:34:10.929Z,88848.00
2023-05-27T06:35:10.969Z,88848.00
2023-05-27T06:36:11.044Z,88848.00
2023-05-27T06:37:11.101Z,88848.00
2023-05-27T06:38:11.236Z,88848.00
2023-05-27T06:39:11.336Z,88846.00
2023-05-27T06:40:11.296Z,88846.00
2023-05-27T06:41:11.382Z,88846.00
2023-05-27T06:42:11.443Z,88848.00
2023-05-27T06:43:11.478Z,88848.00
2023-05-27T06:44:11.581Z,88846.00
2023-05-27T06:45:11.602Z,88846.00
2023-05-27T06:46:11.736Z,88844.00
2023-05-27T06:47:11.729Z,88843.00
2023-05-27T06:48:11.843Z,88843.00
2023-05-27T06:49:11.895Z,88843.00
2023-05-27T06:50:11.913Z,88841.00
2023-05-27T06:51:11.976Z,88837.00
2023-05-27T06:52:14.792Z,88837.00
2023-05-27T06:53:12.045Z,88837.00
2023-05-27T06:54:12.054Z,88835.00
2023-05-27T06:55:12.118Z,88837.00
2023-05-27T06:56:12.029Z,88835.00
2023-05-27T06:57:12.017Z,88833.00
2023-05-27T06:58:12.097Z,88831.00
2023-05-27T06:59:11.996Z,88831.00
2023-05-27T07:00:11.996Z,88831.00
2023-05-27T07:01:12.076Z,88829.00
2023-05-27T07:02:11.968Z,88827.00
2023-05-27T07:03:11.959Z,88827.00
2023-05-27T07:04:11.985Z,88825.00
2023-05-27T07:05:11.942Z,88825.00
2023-05-27T07:06:11.930Z,88823.00
2023-05-27T07:07:11.946Z,88823.00
2023-05-27T07:08:11.886Z,88827.00
2023-05-27T07:09:11.873Z,88825.00
2023-05-27T07:10:11.871Z,88825.00
2023-05-27T07:11:11.898Z,88829.00
2023-05-27T07:12:11.961Z,88821.00
2023-05-27T07:13:11.825Z,88823.00
2023-05-27T07:14:11.812Z,88823.00
2023-05-27T07:15:11.783Z,88825.00
2023-05-27T07:16:11.869Z,88829.00
2023-05-27T07:17:11.774Z,88829.00
2023-05-27T07:18:11.810Z,88827.00
2023-05-27T07:19:11.742Z,88829.00
2023-05-27T07:20:11.802Z,88829.00
2023-05-27T07:21:11.723Z,88827.00
2023-05-27T07:22:11.732Z,88827.00
2023-05-27T07:23:11.702Z,88825.00
2023-05-27T07:24:11.694Z,88825.00
2023-05-27T07:25:11.689Z,88823.00
2023-05-27T07:26:11.662Z,88825.00
2023-05-27T07:27:11.649Z,88821.00
2023-05-27T07:28:11.651Z,88819.00
2023-05-27T07:29:11.705Z,88819.00
2023-05-27T07:30:11.753Z,88819.00
2023-05-27T07:31:11.835Z,88817.00
2023-05-27T07:32:11.870Z,88817.00
2023-05-27T07:33:11.943Z,88817.00
2023-05-27T07:34:12.035Z,88815.00
2023-05-27T07:35:12.046Z,88815.00
2023-05-27T07:36:12.092Z,88809.00
2023-05-27T07:37:12.173Z,88817.00
2023-05-27T07:38:12.196Z,88815.00
2023-05-27T07:39:12.256Z,88815.00
2023-05-27T07:40:12.364Z,88817.00
2023-05-27T07:41:12.292Z,88813.00
2023-05-27T07:42:12.283Z,88817.00
2023-05-27T07:43:12.338Z,88813.00
2023-05-27T07:44:12.271Z,88817.00
2023-05-27T07:45:12.268Z,88813.00
2023-05-27T07:46:12.287Z,88817.00
2023-05-27T07:47:12.255Z,88813.00
2023-05-27T07:48:12.336Z,88811.00
2023-05-27T07:49:12.221Z,88811.00
2023-05-27T07:50:12.261Z,88811.00
2023-05-27T07:51:12.315Z,88807.00
2023-05-27T07:52:12.372Z,88807.00
2023-05-27T07:53:12.470Z,88799.00
2023-05-27T07:54:12.484Z,88799.00
2023-05-27T07:55:12.606Z,88799.00
2023-05-27T07:56:12.577Z,88799.00
2023-05-27T07:57:12.667Z,88793.00
2023-05-27T07:58:12.687Z,88793.00
2023-05-27T07:59:12.707Z,88793.00
2023-05-27T08:00:12.658Z,88793.00
2023-05-27T08:01:12.737Z,88788.00
2023-05-27T08:02:12.680Z,88789.00
2023-05-27T08:03:12.712Z,88788.00
2023-05-27T08:04:24.366Z,88786.00
2023-05-27T08:05:13.579Z,88780.00
2023-05-27T08:06:14.177Z,88780.00
2023-05-27T08:07:12.602Z,88776.00
2023-05-27T08:08:12.555Z,88778.00
2023-05-27T08:09:12.562Z,88780.00
2023-05-27T08:10:12.568Z,88778.00
2023-05-27T08:11:12.510Z,88776.00
2023-05-27T08:12:12.534Z,88776.00
2023-05-27T08:13:12.500Z,88772.00
2023-05-27T08:14:12.525Z,88772.00
2023-05-27T08:15:12.562Z,88768.00
2023-05-27T08:16:12.619Z,88768.00
2023-05-27T08:17:12.682Z,88768.00
2023-05-27T08:18:12.806Z,88766.00
2023-05-27T08:19:12.759Z,88764.00
2023-05-27T08:20:12.838Z,88760.00
2023-05-27T08:21:12.823Z,88762.00
2023-05-27T08:22:12.908Z,88758.00
2023-05-27T08:23:12.930Z,88758.00
2023-05-27T08:24:12.991Z,88754.00
2023-05-27T08:25:13.012Z,88756.00
2023-05-27T08:26:13.057Z,88754.00
2023-05-27T08:27:13.135Z,88752.00
2023-05-27T08:28:13.137Z,88750.00
2023-05-27T08:29:13.204Z,88748.00
2023-05-27T08:30:13.239Z,88750.00
2023-05-27T08:31:13.294Z,88746.00
2023-05-27T08:32:13.405Z,88746.00
2023-05-27T08:33:13.435Z,88744.00
2023-05-27T08:34:13.425Z,88746.00
2023-05-27T08:35:13.450Z,88744.00
2023-05-27T08:36:13.492Z,88742.00
2023-05-27T08:37:13.577Z,88740.00
2023-05-27T08:38:13.595Z,88740.00
2023-05-27T08:39:13.636Z,88738.00
2023-05-27T08:40:13.679Z,88738.00
2023-05-27T08:41:13.738Z,88740.00
2023-05-27T08:42:13.752Z,88738.00
2023-05-27T08:43:13.804Z,88740.00
2023-05-27T08:44:21.318Z,88737.00
2023-05-27T08:45:14.837Z,88735.00
2023-05-27T08:46:13.838Z,88735.00
2023-05-27T08:47:13.807Z,88725.00
2023-05-27T08:48:13.812Z,88725.00
2023-05-27T08:49:13.786Z,88725.00
2023-05-27T08:50:13.759Z,88725.00
2023-05-27T08:51:13.757Z,88725.00
2023-05-27T08:52:13.736Z,88725.00
2023-05-27T08:53:13.730Z,88725.00
2023-05-27T08:54:13.721Z,88725.00
2023-05-27T08:55:13.702Z,88723.00
2023-05-27T08:56:13.715Z,88723.00
2023-05-27T08:57:13.752Z,88725.00
2023-05-27T08:58:13.809Z,88723.00
2023-05-27T08:59:13.844Z,88723.00
2023-05-27T09:00:13.879Z,88727.00
2023-05-27T09:01:13.929Z,88735.00
2023-05-27T09:02:13.982Z,88727.00
2023-05-27T09:03:14.006Z,88735.00
2023-05-27T09:05:33.120Z,88725.00
2023-05-27T09:06:33.051Z,88725.00
2023-05-27T09:07:33.044Z,88721.00
2023-05-27T09:08:49.591Z,88723.00
2023-05-27T09:09:34.014Z,88721.00
2023-05-27T09:10:33.003Z,88718.00
2023-05-27T09:11:33.015Z,88716.00
2023-05-27T09:12:32.946Z,88718.00
2023-05-27T09:13:32.926Z,88716.00
2023-05-27T09:14:32.907Z,88718.00
2023-05-27T09:15:32.887Z,88716.00
2023-05-27T09:16:32.963Z,88716.00
2023-05-27T09:17:33.011Z,88710.00
2023-05-27T09:18:32.841Z,88714.00
2023-05-27T09:19:32.809Z,88712.00
2023-05-27T09:20:32.813Z,88714.00
2023-05-27T09:21:32.795Z,88714.00
2023-05-27T09:22:32.826Z,88712.00
2023-05-27T09:23:32.849Z,88710.00
2023-05-27T09:24:32.843Z,88708.00
2023-05-27T09:25:32.877Z,88712.00
2023-05-27T09:26:32.881Z,88710.00
2023-05-27T09:27:32.912Z,88710.00
2023-05-27T09:28:32.932Z,88710.00
2023-05-27T09:29:32.955Z,88706.00
2023-05-27T09:30:32.948Z,88706.00
2023-05-27T09:31:33.004Z,88706.00
2023-05-27T09:32:32.929Z,88702.00
2023-05-27T09:33:32.897Z,88704.00
2023-05-27T09:34:32.877Z,88700.00
2023-05-27T09:35:32.845Z,88702.00
2023-05-27T09:36:32.812Z,88704.00
2023-05-27T09:37:32.862Z,88702.00
2023-05-27T09:38:32.800Z,88702.00
2023-05-27T09:39:32.734Z,88700.00
2023-05-27T09:40:32.719Z,88700.00
2023-05-27T09:41:32.723Z,88698.00
2023-05-27T09:42:32.655Z,88698.00
2023-05-27T09:43:32.661Z,88696.00
2023-05-27T09:44:32.616Z,88698.00
2023-05-27T09:45:32.635Z,88696.00
2023-05-27T09:46:32.614Z,88692.00
2023-05-27T09:47:32.649Z,88692.00
2023-05-27T09:48:32.733Z,88692.00
2023-05-27T09:49:32.680Z,88696.00
2023-05-27T09:50:32.693Z,88694.00
2023-05-27T09:51:32.702Z,88690.00
2023-05-27T09:52:34.511Z,88690.00
2023-05-27T09:53:32.704Z,88688.00
2023-05-27T09:54:32.660Z,88686.00
2023-05-27T09:55:32.670Z,88684.00
2023-05-27T09:56:32.611Z,88684.00
2023-05-27T09:57:32.576Z,88682.00
2023-05-27T09:58:32.571Z,88684.00
2023-05-27T09:59:32.549Z,88680.00
2023-05-27T10:00:32.496Z,88676.00
2023-05-27T10:01:32.494Z,88680.00
2023-05-27T10:02:32.442Z,88674.00
2023-05-27T10:03:32.401Z,88673.00
2023-05-27T10:04:32.418Z,88671.00
2023-05-27T10:05:32.361Z,88674.00
2023-05-27T10:06:32.300Z,88671.00
2023-05-27T10:07:36.591Z,88671.00
2023-05-27T10:08:32.235Z,88669.00
2023-05-27T10:09:32.204Z,88669.00
2023-05-27T10:10:32.176Z,88667.00
2023-05-27T10:11:32.181Z,88665.00
2023-05-27T10:12:32.118Z,88663.00
2023-05-27T10:13:32.088Z,88665.00
2023-05-27T10:14:32.080Z,88661.00
2023-05-27T10:15:32.026Z,88659.00
2023-05-27T10:16:32.062Z,88659.00
2023-05-27T10:17:31.978Z,88657.00
2023-05-27T10:18:31.981Z,88663.00
2023-05-27T10:19:31.941Z,88659.00
2023-05-27T10:20:31.931Z,88665.00
2023-05-27T10:21:32.031Z,88657.00
2023-05-27T10:22:31.825Z,88659.00
2023-05-27T10:23:31.790Z,88655.00
2023-05-27T10:24:31.784Z,88653.00
2023-05-27T10:25:31.792Z,88655.00
2023-05-27T10:26:31.678Z,88651.00
2023-05-27T10:27:31.671Z,88657.00
2023-05-27T10:28:31.610Z,88653.00
2023-05-27T10:29:31.599Z,88651.00
2023-05-27T10:30:31.550Z,88651.00
2023-05-27T10:31:31.568Z,88651.00
2023-05-27T10:32:31.607Z,88651.00
2023-05-27T10:33:31.563Z,88649.00
2023-05-27T10:34:31.560Z,88649.00
2023-05-27T10:35:32.006Z,88647.00
2023-05-27T10:36:31.554Z,88649.00
2023-05-27T10:37:31.580Z,88647.00
2023-05-27T10:38:31.549Z,88647.00
2023-05-27T10:39:31.561Z,88643.00
2023-05-27T10:40:31.574Z,88639.00
2023-05-27T10:41:31.563Z,88647.00
2023-05-27T10:42:31.544Z,88641.00
2023-05-27T10:43:31.608Z,88641.00
2023-05-27T10:44:31.539Z,88645.00
2023-05-27T10:45:31.574Z,88641.00
2023-05-27T10:46:31.606Z,88639.00
2023-05-27T10:47:31.649Z,88639.00
2023-05-27T10:48:31.541Z,88637.00
2023-05-27T10:49:31.522Z,88635.00
2023-05-27T10:50:31.523Z,88633.00
2023-05-27T10:51:31.531Z,88639.00
2023-05-27T10:52:31.506Z,88639.00
2023-05-27T10:53:31.507Z,88633.00
2023-05-27T10:54:31.629Z,88639.00
2023-05-27T10:55:31.524Z,88631.00
2023-05-27T10:56:31.506Z,88639.00
2023-05-27T10:57:31.495Z,88637.00
2023-05-27T10:58:31.480Z,88637.00
2023-05-27T10:59:31.483Z,88631.00
2023-05-27T11:00:31.480Z,88633.00
2023-05-27T11:01:31.555Z,88635.00
2023-05-27T11:02:31.500Z,88635.00
2023-05-27T11:03:31.531Z,88631.00
2023-05-27T11:04:31.460Z,88633.00
2023-05-27T11:05:31.457Z,88633.00
2023-05-27T11:06:31.440Z,88633.00
2023-05-27T11:07:31.473Z,88635.00
2023-05-27T11:08:31.415Z,88633.00
2023-05-27T11:09:31.432Z,88631.00
2023-05-27T11:10:31.414Z,88635.00
2023-05-27T11:11:31.400Z,88629.00
2023-05-27T11:12:31.393Z,88633.00
2023-05-27T11:13:31.371Z,88633.00
2023-05-27T11:14:31.360Z,88631.00
2023-05-27T11:15:31.358Z,88627.00
2023-05-27T11:16:31.412Z,88627.00
2023-05-27T11:17:31.379Z,88627.00
2023-05-27T11:18:31.334Z,88627.00
2023-05-27T11:19:31.319Z,88627.00
2023-05-27T11:20:31.347Z,88625.00
2023-05-27T11:21:31.299Z,88627.00
2023-05-27T11:22:31.284Z,88625.00
2023-05-27T11:23:31.270Z,88623.00
2023-05-27T11:24:31.252Z,88625.00
2023-05-27T11:25:31.252Z,88625.00
2023-05-27T11:26:31.292Z,88621.00
2023-05-27T11:27:31.209Z,88621.00
2023-05-27T11:28:31.191Z,88623.00
2023-05-27T11:29:31.158Z,88619.00
2023-05-27T11:30:31.157Z,88621.00
2023-05-27T11:31:31.175Z,88618.00
2023-05-27T11:32:31.103Z,88618.00
2023-05-27T11:33:37.120Z,88610.00
2023-05-27T11:34:32.052Z,88610.00
2023-05-27T11:35:31.021Z,88610.00
2023-05-27T11:36:30.988Z,88608.00
2023-05-27T11:37:30.964Z,88606.00
2023-05-27T11:38:30.931Z,88604.00
2023-05-27T11:39:30.897Z,88608.00
2023-05-27T11:40:30.875Z,88602.00
2023-05-27T11:41:30.850Z,88602.00
2023-05-27T11:42:30.816Z,88602.00
2023-05-27T11:43:30.817Z,88598.00
2023-05-27T11:44:30.739Z,88600.00
2023-05-27T11:45:30.819Z,88596.00
2023-05-27T11:46:30.707Z,88596.00